sensor_id;sensor_type;location;lat;lon;timestamp;P1;durP1;ratioP1;P2;durP2;ratioP2
57989;SDS011;58373;51.824;5.564;2022-10-17T00:02:21;9.70;;;7.78;;
57989;SDS011;58373;51.824;5.564;2022-10-17T00:04:46;9.95;;;8.02;;
57989;SDS011;58373;51.824;5.564;2022-10-17T00:07:11;10.02;;;9.02;;
57989;SDS011;58373;51.824;5.564;2022-10-17T00:09:37;10.13;;;8.15;;
57989;SDS011;58373;51.824;5.564;2022-10-17T00:12:02;13.23;;;8.68;;
57989;SDS011;58373;51.824;5.564;2022-10-17T00:14:27;10.38;;;7.57;;
57989;SDS011;58373;51.824;5.564;2022-10-17T00:16:53;11.20;;;7.35;;
57989;SDS011;58373;51.824;5.564;2022-10-17T00:19:18;11.07;;;9.52;;
57989;SDS011;58373;51.824;5.564;2022-10-17T00:21:43;9.98;;;8.18;;
57989;SDS011;58373;51.824;5.564;2022-10-17T00:24:09;10.50;;;7.97;;
57989;SDS011;58373;51.824;5.564;2022-10-17T00:26:34;11.73;;;9.10;;
57989;SDS011;58373;51.824;5.564;2022-10-17T00:28:59;11.50;;;8.18;;
57989;SDS011;58373;51.824;5.564;2022-10-17T00:31:25;11.02;;;9.05;;
57989;SDS011;58373;51.824;5.564;2022-10-17T00:33:51;10.98;;;9.55;;
57989;SDS011;58373;51.824;5.564;2022-10-17T00:36:17;11.57;;;8.60;;
57989;SDS011;58373;51.824;5.564;2022-10-17T00:38:48;10.45;;;8.90;;
57989;SDS011;58373;51.824;5.564;2022-10-17T00:41:19;10.68;;;9.57;;
57989;SDS011;58373;51.824;5.564;2022-10-17T00:44:56;9.80;;;7.50;;
57989;SDS011;58373;51.824;5.564;2022-10-17T00:46:50;12.82;;;9.10;;
57989;SDS011;58373;51.824;5.564;2022-10-17T00:49:15;10.13;;;8.30;;
57989;SDS011;58373;51.824;5.564;2022-10-17T00:52:00;9.77;;;8.57;;
57989;SDS011;58373;51.824;5.564;2022-10-17T00:54:32;11.57;;;9.70;;
57989;SDS011;58373;51.824;5.564;2022-10-17T00:57:00;12.10;;;10.95;;
57989;SDS011;58373;51.824;5.564;2022-10-17T00:59:25;12.05;;;9.82;;
57989;SDS011;58373;51.824;5.564;2022-10-17T01:01:55;10.93;;;9.50;;
57989;SDS011;58373;51.824;5.564;2022-10-17T01:04:25;10.57;;;9.43;;
57989;SDS011;58373;51.824;5.564;2022-10-17T01:06:51;10.52;;;8.63;;
57989;SDS011;58373;51.824;5.564;2022-10-17T01:09:16;12.40;;;8.57;;
57989;SDS011;58373;51.824;5.564;2022-10-17T01:11:44;11.10;;;9.10;;
57989;SDS011;58373;51.824;5.564;2022-10-17T01:15:03;11.90;;;10.80;;
57989;SDS011;58373;51.824;5.564;2022-10-17T01:20:28;12.38;;;9.45;;
57989;SDS011;58373;51.824;5.564;2022-10-17T01:25:56;10.95;;;9.80;;
57989;SDS011;58373;51.824;5.564;2022-10-17T01:32:04;12.75;;;11.45;;
57989;SDS011;58373;51.824;5.564;2022-10-17T01:37:31;10.02;;;8.70;;
57989;SDS011;58373;51.824;5.564;2022-10-17T01:40:04;12.50;;;9.27;;
57989;SDS011;58373;51.824;5.564;2022-10-17T01:42:34;12.45;;;9.45;;
57989;SDS011;58373;51.824;5.564;2022-10-17T01:45:13;12.27;;;10.57;;
57989;SDS011;58373;51.824;5.564;2022-10-17T01:47:45;10.35;;;8.60;;
57989;SDS011;58373;51.824;5.564;2022-10-17T01:50:18;11.18;;;9.77;;
57989;SDS011;58373;51.824;5.564;2022-10-17T01:52:52;12.45;;;11.15;;
57989;SDS011;58373;51.824;5.564;2022-10-17T01:55:25;12.60;;;8.77;;
57989;SDS011;58373;51.824;5.564;2022-10-17T01:57:56;11.02;;;9.70;;
57989;SDS011;58373;51.824;5.564;2022-10-17T02:00:27;12.25;;;11.07;;
57989;SDS011;58373;51.824;5.564;2022-10-17T02:02:59;13.77;;;10.07;;
57989;SDS011;58373;51.824;5.564;2022-10-17T02:05:30;12.55;;;11.35;;
57989;SDS011;58373;51.824;5.564;2022-10-17T02:08:00;11.98;;;9.98;;
57989;SDS011;58373;51.824;5.564;2022-10-17T02:13:18;13.50;;;9.95;;
57989;SDS011;58373;51.824;5.564;2022-10-17T02:18:26;11.10;;;8.43;;
57989;SDS011;58373;51.824;5.564;2022-10-17T02:29:17;10.57;;;8.50;;
57989;SDS011;58373;51.824;5.564;2022-10-17T02:31:59;12.73;;;11.50;;
57989;SDS011;58373;51.824;5.564;2022-10-17T02:34:37;12.90;;;9.73;;
57989;SDS011;58373;51.824;5.564;2022-10-17T02:37:06;11.32;;;9.38;;
57989;SDS011;58373;51.824;5.564;2022-10-17T02:39:33;13.18;;;10.88;;
57989;SDS011;58373;51.824;5.564;2022-10-17T02:42:02;13.65;;;10.27;;
57989;SDS011;58373;51.824;5.564;2022-10-17T02:44:31;12.40;;;9.40;;
57989;SDS011;58373;51.824;5.564;2022-10-17T02:47:02;12.88;;;9.18;;
57989;SDS011;58373;51.824;5.564;2022-10-17T02:49:35;12.95;;;10.30;;
57989;SDS011;58373;51.824;5.564;2022-10-17T02:54:46;13.10;;;11.45;;
57989;SDS011;58373;51.824;5.564;2022-10-17T03:00:00;13.10;;;10.52;;
57989;SDS011;58373;51.824;5.564;2022-10-17T03:02:27;11.45;;;9.95;;
57989;SDS011;58373;51.824;5.564;2022-10-17T03:05:02;13.45;;;10.75;;
57989;SDS011;58373;51.824;5.564;2022-10-17T03:07:27;11.60;;;9.07;;
57989;SDS011;58373;51.824;5.564;2022-10-17T03:09:53;13.35;;;9.85;;
57989;SDS011;58373;51.824;5.564;2022-10-17T03:12:18;13.95;;;12.55;;
57989;SDS011;58373;51.824;5.564;2022-10-17T03:14:43;14.30;;;10.63;;
57989;SDS011;58373;51.824;5.564;2022-10-17T03:17:09;13.95;;;12.57;;
57989;SDS011;58373;51.824;5.564;2022-10-17T03:19:34;13.35;;;10.73;;
57989;SDS011;58373;51.824;5.564;2022-10-17T03:21:59;14.95;;;10.43;;
57989;SDS011;58373;51.824;5.564;2022-10-17T03:24:24;12.32;;;10.77;;
57989;SDS011;58373;51.824;5.564;2022-10-17T03:26:50;12.10;;;9.40;;
57989;SDS011;58373;51.824;5.564;2022-10-17T03:29:15;12.43;;;11.27;;
57989;SDS011;58373;51.824;5.564;2022-10-17T03:31:40;12.10;;;10.57;;
57989;SDS011;58373;51.824;5.564;2022-10-17T03:34:06;13.13;;;11.77;;
57989;SDS011;58373;51.824;5.564;2022-10-17T03:36:31;11.88;;;9.73;;
57989;SDS011;58373;51.824;5.564;2022-10-17T03:38:56;13.77;;;12.38;;
57989;SDS011;58373;51.824;5.564;2022-10-17T03:41:22;12.82;;;9.95;;
57989;SDS011;58373;51.824;5.564;2022-10-17T03:43:47;13.60;;;10.32;;
57989;SDS011;58373;51.824;5.564;2022-10-17T03:46:12;13.05;;;11.43;;
57989;SDS011;58373;51.824;5.564;2022-10-17T03:48:38;12.57;;;11.27;;
57989;SDS011;58373;51.824;5.564;2022-10-17T03:51:04;15.00;;;11.40;;
57989;SDS011;58373;51.824;5.564;2022-10-17T03:53:31;11.38;;;8.77;;
57989;SDS011;58373;51.824;5.564;2022-10-17T03:56:07;10.93;;;8.55;;
57989;SDS011;58373;51.824;5.564;2022-10-17T03:58:40;12.65;;;10.05;;
57989;SDS011;58373;51.824;5.564;2022-10-17T04:01:07;12.88;;;11.52;;
57989;SDS011;58373;51.824;5.564;2022-10-17T04:03:33;11.95;;;10.82;;
57989;SDS011;58373;51.824;5.564;2022-10-17T04:05:59;12.27;;;11.07;;
57989;SDS011;58373;51.824;5.564;2022-10-17T04:08:26;12.25;;;10.93;;
57989;SDS011;58373;51.824;5.564;2022-10-17T04:10:51;14.68;;;11.90;;
57989;SDS011;58373;51.824;5.564;2022-10-17T04:13:17;13.02;;;11.00;;
57989;SDS011;58373;51.824;5.564;2022-10-17T04:15:52;13.07;;;11.77;;
57989;SDS011;58373;51.824;5.564;2022-10-17T04:18:21;12.85;;;9.30;;
57989;SDS011;58373;51.824;5.564;2022-10-17T04:20:47;12.23;;;10.15;;
57989;SDS011;58373;51.824;5.564;2022-10-17T04:23:12;12.80;;;11.43;;
57989;SDS011;58373;51.824;5.564;2022-10-17T04:25:37;12.05;;;9.90;;
57989;SDS011;58373;51.824;5.564;2022-10-17T04:28:03;12.30;;;10.65;;
57989;SDS011;58373;51.824;5.564;2022-10-17T04:30:28;12.50;;;11.30;;
57989;SDS011;58373;51.824;5.564;2022-10-17T04:32:54;11.52;;;10.35;;
57989;SDS011;58373;51.824;5.564;2022-10-17T04:35:19;12.07;;;10.43;;
57989;SDS011;58373;51.824;5.564;2022-10-17T04:37:44;13.90;;;10.20;;
57989;SDS011;58373;51.824;5.564;2022-10-17T04:40:10;14.73;;;11.43;;
57989;SDS011;58373;51.824;5.564;2022-10-17T04:42:35;14.20;;;11.55;;
57989;SDS011;58373;51.824;5.564;2022-10-17T04:45:00;12.68;;;10.98;;
57989;SDS011;58373;51.824;5.564;2022-10-17T04:47:26;12.60;;;10.48;;
57989;SDS011;58373;51.824;5.564;2022-10-17T04:49:51;13.60;;;11.52;;
57989;SDS011;58373;51.824;5.564;2022-10-17T04:52:17;12.90;;;11.00;;
57989;SDS011;58373;51.824;5.564;2022-10-17T04:54:42;12.27;;;10.20;;
57989;SDS011;58373;51.824;5.564;2022-10-17T04:57:07;11.85;;;10.48;;
57989;SDS011;58373;51.824;5.564;2022-10-17T04:59:33;12.55;;;11.27;;
57989;SDS011;58373;51.824;5.564;2022-10-17T05:01:58;13.00;;;10.40;;
57989;SDS011;58373;51.824;5.564;2022-10-17T05:04:23;12.48;;;11.20;;
57989;SDS011;58373;51.824;5.564;2022-10-17T05:06:49;13.02;;;11.52;;
57989;SDS011;58373;51.824;5.564;2022-10-17T05:09:14;13.75;;;10.60;;
57989;SDS011;58373;51.824;5.564;2022-10-17T05:11:40;12.95;;;11.45;;
57989;SDS011;58373;51.824;5.564;2022-10-17T05:14:06;13.27;;;9.18;;
57989;SDS011;58373;51.824;5.564;2022-10-17T05:16:31;13.93;;;11.05;;
57989;SDS011;58373;51.824;5.564;2022-10-17T05:18:57;12.90;;;11.23;;
57989;SDS011;58373;51.824;5.564;2022-10-17T05:21:23;11.70;;;10.43;;
57989;SDS011;58373;51.824;5.564;2022-10-17T05:23:50;10.70;;;8.80;;
57989;SDS011;58373;51.824;5.564;2022-10-17T05:26:16;13.55;;;9.35;;
57989;SDS011;58373;51.824;5.564;2022-10-17T05:28:42;13.02;;;9.90;;
57989;SDS011;58373;51.824;5.564;2022-10-17T05:31:08;12.68;;;11.38;;
57989;SDS011;58373;51.824;5.564;2022-10-17T05:33:35;11.90;;;10.60;;
57989;SDS011;58373;51.824;5.564;2022-10-17T05:36:01;13.23;;;11.07;;
57989;SDS011;58373;51.824;5.564;2022-10-17T05:38:27;12.30;;;11.02;;
57989;SDS011;58373;51.824;5.564;2022-10-17T05:41:11;12.00;;;10.65;;
57989;SDS011;58373;51.824;5.564;2022-10-17T05:43:36;11.90;;;10.70;;
57989;SDS011;58373;51.824;5.564;2022-10-17T05:46:02;12.90;;;10.23;;
57989;SDS011;58373;51.824;5.564;2022-10-17T05:48:31;12.60;;;11.30;;
57989;SDS011;58373;51.824;5.564;2022-10-17T05:50:57;12.27;;;9.80;;
57989;SDS011;58373;51.824;5.564;2022-10-17T05:53:24;13.15;;;10.48;;
57989;SDS011;58373;51.824;5.564;2022-10-17T05:55:56;11.73;;;10.50;;
57989;SDS011;58373;51.824;5.564;2022-10-17T05:58:25;13.15;;;11.15;;
57989;SDS011;58373;51.824;5.564;2022-10-17T06:00:50;12.90;;;10.80;;
57989;SDS011;58373;51.824;5.564;2022-10-17T06:03:15;11.73;;;10.48;;
57989;SDS011;58373;51.824;5.564;2022-10-17T06:05:41;11.35;;;10.18;;
57989;SDS011;58373;51.824;5.564;2022-10-17T06:08:06;11.38;;;9.65;;
57989;SDS011;58373;51.824;5.564;2022-10-17T06:10:32;11.27;;;10.07;;
57989;SDS011;58373;51.824;5.564;2022-10-17T06:12:57;10.85;;;9.20;;
57989;SDS011;58373;51.824;5.564;2022-10-17T06:15:22;11.93;;;10.65;;
57989;SDS011;58373;51.824;5.564;2022-10-17T06:17:48;16.17;;;10.38;;
57989;SDS011;58373;51.824;5.564;2022-10-17T06:20:13;12.55;;;10.48;;
57989;SDS011;58373;51.824;5.564;2022-10-17T06:22:38;11.80;;;10.55;;
57989;SDS011;58373;51.824;5.564;2022-10-17T06:25:04;11.60;;;10.43;;
57989;SDS011;58373;51.824;5.564;2022-10-17T06:27:29;11.98;;;10.48;;
57989;SDS011;58373;51.824;5.564;2022-10-17T06:29:55;11.15;;;9.77;;
57989;SDS011;58373;51.824;5.564;2022-10-17T06:32:20;12.25;;;10.73;;
57989;SDS011;58373;51.824;5.564;2022-10-17T06:34:45;12.00;;;10.65;;
57989;SDS011;58373;51.824;5.564;2022-10-17T06:37:11;12.50;;;9.13;;
57989;SDS011;58373;51.824;5.564;2022-10-17T06:39:36;11.52;;;10.23;;
57989;SDS011;58373;51.824;5.564;2022-10-17T06:42:02;11.70;;;10.30;;
57989;SDS011;58373;51.824;5.564;2022-10-17T06:44:28;12.82;;;10.23;;
57989;SDS011;58373;51.824;5.564;2022-10-17T06:46:56;11.30;;;9.82;;
57989;SDS011;58373;51.824;5.564;2022-10-17T06:49:25;12.23;;;10.25;;
57989;SDS011;58373;51.824;5.564;2022-10-17T06:51:51;11.77;;;10.57;;
57989;SDS011;58373;51.824;5.564;2022-10-17T06:54:16;10.98;;;8.82;;
57989;SDS011;58373;51.824;5.564;2022-10-17T06:56:42;13.73;;;10.23;;
57989;SDS011;58373;51.824;5.564;2022-10-17T06:59:08;13.75;;;10.00;;
57989;SDS011;58373;51.824;5.564;2022-10-17T07:01:34;12.65;;;9.68;;
57989;SDS011;58373;51.824;5.564;2022-10-17T07:04:00;13.88;;;10.07;;
57989;SDS011;58373;51.824;5.564;2022-10-17T07:06:26;12.45;;;10.18;;
57989;SDS011;58373;51.824;5.564;2022-10-17T07:08:51;12.23;;;10.05;;
57989;SDS011;58373;51.824;5.564;2022-10-17T07:11:18;12.82;;;10.50;;
57989;SDS011;58373;51.824;5.564;2022-10-17T07:13:44;15.48;;;9.95;;
57989;SDS011;58373;51.824;5.564;2022-10-17T07:16:10;11.35;;;10.23;;
57989;SDS011;58373;51.824;5.564;2022-10-17T07:18:36;11.13;;;9.75;;
57989;SDS011;58373;51.824;5.564;2022-10-17T07:21:02;11.10;;;9.98;;
57989;SDS011;58373;51.824;5.564;2022-10-17T07:23:28;12.73;;;10.90;;
57989;SDS011;58373;51.824;5.564;2022-10-17T07:25:58;11.60;;;10.40;;
57989;SDS011;58373;51.824;5.564;2022-10-17T07:28:25;12.15;;;10.75;;
57989;SDS011;58373;51.824;5.564;2022-10-17T07:30:51;11.70;;;10.50;;
57989;SDS011;58373;51.824;5.564;2022-10-17T07:33:17;11.35;;;10.13;;
57989;SDS011;58373;51.824;5.564;2022-10-17T07:35:42;12.18;;;9.88;;
57989;SDS011;58373;51.824;5.564;2022-10-17T07:38:07;13.70;;;10.98;;
57989;SDS011;58373;51.824;5.564;2022-10-17T07:40:33;11.60;;;10.43;;
57989;SDS011;58373;51.824;5.564;2022-10-17T07:42:58;14.32;;;9.50;;
57989;SDS011;58373;51.824;5.564;2022-10-17T07:45:24;13.25;;;10.95;;
57989;SDS011;58373;51.824;5.564;2022-10-17T07:47:54;11.90;;;10.70;;
57989;SDS011;58373;51.824;5.564;2022-10-17T07:50:21;12.30;;;10.55;;
57989;SDS011;58373;51.824;5.564;2022-10-17T07:52:46;12.57;;;11.05;;
57989;SDS011;58373;51.824;5.564;2022-10-17T07:55:11;13.40;;;11.00;;
57989;SDS011;58373;51.824;5.564;2022-10-17T07:57:36;14.15;;;11.55;;
57989;SDS011;58373;51.824;5.564;2022-10-17T08:00:04;13.77;;;12.25;;
57989;SDS011;58373;51.824;5.564;2022-10-17T08:02:30;13.95;;;12.50;;
57989;SDS011;58373;51.824;5.564;2022-10-17T08:04:56;14.60;;;12.85;;
57989;SDS011;58373;51.824;5.564;2022-10-17T08:07:21;14.68;;;12.48;;
57989;SDS011;58373;51.824;5.564;2022-10-17T08:09:46;13.00;;;10.82;;
57989;SDS011;58373;51.824;5.564;2022-10-17T08:12:12;14.52;;;10.43;;
57989;SDS011;58373;51.824;5.564;2022-10-17T08:14:41;14.43;;;11.02;;
57989;SDS011;58373;51.824;5.564;2022-10-17T08:17:07;11.35;;;10.05;;
57989;SDS011;58373;51.824;5.564;2022-10-17T08:19:32;16.02;;;10.68;;
57989;SDS011;58373;51.824;5.564;2022-10-17T08:21:58;11.25;;;10.02;;
57989;SDS011;58373;51.824;5.564;2022-10-17T08:24:23;13.65;;;9.02;;
57989;SDS011;58373;51.824;5.564;2022-10-17T08:26:49;11.75;;;8.98;;
57989;SDS011;58373;51.824;5.564;2022-10-17T08:29:15;12.63;;;9.90;;
57989;SDS011;58373;51.824;5.564;2022-10-17T08:31:41;11.90;;;10.30;;
57989;SDS011;58373;51.824;5.564;2022-10-17T08:34:06;14.00;;;10.55;;
57989;SDS011;58373;51.824;5.564;2022-10-17T08:36:32;14.38;;;11.15;;
57989;SDS011;58373;51.824;5.564;2022-10-17T08:38:57;11.60;;;9.95;;
57989;SDS011;58373;51.824;5.564;2022-10-17T08:47:15;13.15;;;9.75;;
57989;SDS011;58373;51.824;5.564;2022-10-17T08:49:48;12.57;;;10.25;;
57989;SDS011;58373;51.824;5.564;2022-10-17T08:55:09;12.32;;;10.57;;
57989;SDS011;58373;51.824;5.564;2022-10-17T08:57:58;13.07;;;10.38;;
57989;SDS011;58373;51.824;5.564;2022-10-17T09:00:23;12.02;;;10.73;;
57989;SDS011;58373;51.824;5.564;2022-10-17T09:05:29;11.50;;;10.30;;
57989;SDS011;58373;51.824;5.564;2022-10-17T09:18:59;10.85;;;9.48;;
57989;SDS011;58373;51.824;5.564;2022-10-17T09:24:36;12.40;;;9.65;;
57989;SDS011;58373;51.824;5.564;2022-10-17T09:27:02;13.35;;;9.93;;
57989;SDS011;58373;51.824;5.564;2022-10-17T09:29:29;11.00;;;8.90;;
57989;SDS011;58373;51.824;5.564;2022-10-17T09:32:02;11.93;;;9.52;;
57989;SDS011;58373;51.824;5.564;2022-10-17T09:34:38;11.90;;;9.10;;
57989;SDS011;58373;51.824;5.564;2022-10-17T09:37:03;12.55;;;9.48;;
57989;SDS011;58373;51.824;5.564;2022-10-17T09:39:37;11.15;;;9.43;;
57989;SDS011;58373;51.824;5.564;2022-10-17T09:42:02;10.65;;;9.40;;
57989;SDS011;58373;51.824;5.564;2022-10-17T09:44:36;10.70;;;9.50;;
57989;SDS011;58373;51.824;5.564;2022-10-17T09:49:47;11.15;;;10.05;;
57989;SDS011;58373;51.824;5.564;2022-10-17T09:52:14;12.50;;;8.90;;
57989;SDS011;58373;51.824;5.564;2022-10-17T09:54:44;10.20;;;8.70;;
57989;SDS011;58373;51.824;5.564;2022-10-17T09:57:12;10.07;;;8.98;;
57989;SDS011;58373;51.824;5.564;2022-10-17T09:59:40;11.23;;;9.25;;
57989;SDS011;58373;51.824;5.564;2022-10-17T10:04:36;10.07;;;8.95;;
57989;SDS011;58373;51.824;5.564;2022-10-17T10:07:17;11.05;;;8.48;;
57989;SDS011;58373;51.824;5.564;2022-10-17T10:09:45;10.57;;;8.82;;
57989;SDS011;58373;51.824;5.564;2022-10-17T10:12:16;9.38;;;8.15;;
57989;SDS011;58373;51.824;5.564;2022-10-17T10:14:53;10.43;;;8.60;;
57989;SDS011;58373;51.824;5.564;2022-10-17T10:17:33;10.13;;;8.45;;
57989;SDS011;58373;51.824;5.564;2022-10-17T10:20:23;9.75;;;8.65;;
57989;SDS011;58373;51.824;5.564;2022-10-17T10:23:24;10.63;;;9.13;;
57989;SDS011;58373;51.824;5.564;2022-10-17T10:25:52;11.40;;;9.50;;
57989;SDS011;58373;51.824;5.564;2022-10-17T10:28:22;10.43;;;8.98;;
57989;SDS011;58373;51.824;5.564;2022-10-17T10:30:52;10.18;;;9.15;;
57989;SDS011;58373;51.824;5.564;2022-10-17T10:33:19;11.48;;;9.57;;
57989;SDS011;58373;51.824;5.564;2022-10-17T10:35:54;12.00;;;8.95;;
57989;SDS011;58373;51.824;5.564;2022-10-17T10:38:25;11.35;;;9.35;;
57989;SDS011;58373;51.824;5.564;2022-10-17T10:40:53;11.38;;;9.98;;
57989;SDS011;58373;51.824;5.564;2022-10-17T10:43:22;10.80;;;9.65;;
57989;SDS011;58373;51.824;5.564;2022-10-17T10:45:56;11.50;;;10.27;;
57989;SDS011;58373;51.824;5.564;2022-10-17T10:48:25;13.40;;;10.75;;
57989;SDS011;58373;51.824;5.564;2022-10-17T10:51:09;11.70;;;10.30;;
57989;SDS011;58373;51.824;5.564;2022-10-17T10:53:43;12.63;;;10.55;;
57989;SDS011;58373;51.824;5.564;2022-10-17T10:56:15;11.80;;;10.60;;
57989;SDS011;58373;51.824;5.564;2022-10-17T11:04:32;13.23;;;11.48;;
57989;SDS011;58373;51.824;5.564;2022-10-17T11:09:57;12.98;;;11.57;;
57989;SDS011;58373;51.824;5.564;2022-10-17T11:12:32;12.90;;;11.63;;
57989;SDS011;58373;51.824;5.564;2022-10-17T11:23:14;13.07;;;11.50;;
57989;SDS011;58373;51.824;5.564;2022-10-17T11:25:45;12.90;;;11.65;;
57989;SDS011;58373;51.824;5.564;2022-10-17T11:28:13;12.13;;;10.93;;
57989;SDS011;58373;51.824;5.564;2022-10-17T11:30:43;11.90;;;10.70;;
57989;SDS011;58373;51.824;5.564;2022-10-17T11:33:14;12.45;;;11.15;;
57989;SDS011;58373;51.824;5.564;2022-10-17T11:35:44;12.80;;;11.48;;
57989;SDS011;58373;51.824;5.564;2022-10-17T11:38:26;12.83;;;11.40;;
57989;SDS011;58373;51.824;5.564;2022-10-17T11:40:52;11.90;;;10.32;;
57989;SDS011;58373;51.824;5.564;2022-10-17T11:46:03;11.07;;;9.98;;
57989;SDS011;58373;51.824;5.564;2022-10-17T11:48:39;12.05;;;10.40;;
57989;SDS011;58373;51.824;5.564;2022-10-17T11:51:09;11.85;;;10.50;;
57989;SDS011;58373;51.824;5.564;2022-10-17T11:57:32;12.48;;;11.18;;
57989;SDS011;58373;51.824;5.564;2022-10-17T12:08:13;11.35;;;10.15;;
57989;SDS011;58373;51.824;5.564;2022-10-17T12:10:54;12.50;;;10.82;;
57989;SDS011;58373;51.824;5.564;2022-10-17T12:15:52;12.40;;;11.07;;
57989;SDS011;58373;51.824;5.564;2022-10-17T12:18:23;12.48;;;11.20;;
57989;SDS011;58373;51.824;5.564;2022-10-17T12:20:55;13.30;;;11.93;;
57989;SDS011;58373;51.824;5.564;2022-10-17T12:23:27;13.25;;;11.95;;
57989;SDS011;58373;51.824;5.564;2022-10-17T12:25:55;13.63;;;11.95;;
57989;SDS011;58373;51.824;5.564;2022-10-17T12:28:32;14.02;;;12.32;;
57989;SDS011;58373;51.824;5.564;2022-10-17T12:31:06;14.63;;;12.23;;
57989;SDS011;58373;51.824;5.564;2022-10-17T12:46:41;15.27;;;13.68;;
57989;SDS011;58373;51.824;5.564;2022-10-17T13:00:42;15.18;;;13.57;;
57989;SDS011;58373;51.824;5.564;2022-10-17T13:02:53;14.82;;;13.27;;
57989;SDS011;58373;51.824;5.564;2022-10-17T13:05:24;13.98;;;12.63;;
57989;SDS011;58373;51.824;5.564;2022-10-17T13:07:54;14.32;;;12.82;;
57989;SDS011;58373;51.824;5.564;2022-10-17T13:10:25;14.23;;;12.88;;
57989;SDS011;58373;51.824;5.564;2022-10-17T13:12:56;14.05;;;12.63;;
57989;SDS011;58373;51.824;5.564;2022-10-17T13:15:44;13.88;;;12.57;;
57989;SDS011;58373;51.824;5.564;2022-10-17T13:18:19;14.20;;;12.80;;
57989;SDS011;58373;51.824;5.564;2022-10-17T13:21:03;14.40;;;12.90;;
57989;SDS011;58373;51.824;5.564;2022-10-17T13:23:34;14.38;;;12.98;;
57989;SDS011;58373;51.824;5.564;2022-10-17T13:26:23;15.85;;;14.00;;
57989;SDS011;58373;51.824;5.564;2022-10-17T13:29:05;15.77;;;14.27;;
57989;SDS011;58373;51.824;5.564;2022-10-17T13:31:36;14.75;;;13.40;;
57989;SDS011;58373;51.824;5.564;2022-10-17T13:34:04;15.80;;;14.25;;
57989;SDS011;58373;51.824;5.564;2022-10-17T13:36:38;16.70;;;15.00;;
57989;SDS011;58373;51.824;5.564;2022-10-17T13:39:07;16.08;;;14.25;;
57989;SDS011;58373;51.824;5.564;2022-10-17T13:41:36;16.20;;;14.50;;
57989;SDS011;58373;51.824;5.564;2022-10-17T13:44:03;15.25;;;13.85;;
57989;SDS011;58373;51.824;5.564;2022-10-17T13:46:42;16.55;;;15.05;;
57989;SDS011;58373;51.824;5.564;2022-10-17T13:51:58;18.55;;;16.77;;
57989;SDS011;58373;51.824;5.564;2022-10-17T13:54:31;19.05;;;17.05;;
57989;SDS011;58373;51.824;5.564;2022-10-17T13:57:25;19.23;;;17.42;;
57989;SDS011;58373;51.824;5.564;2022-10-17T13:59:53;19.90;;;18.05;;
57989;SDS011;58373;51.824;5.564;2022-10-17T14:02:23;19.75;;;17.95;;
57989;SDS011;58373;51.824;5.564;2022-10-17T14:07:39;19.27;;;17.58;;
57989;SDS011;58373;51.824;5.564;2022-10-17T14:10:18;19.70;;;17.77;;
57989;SDS011;58373;51.824;5.564;2022-10-17T14:12:50;18.85;;;17.25;;
57989;SDS011;58373;51.824;5.564;2022-10-17T14:15:17;19.92;;;18.02;;
57989;SDS011;58373;51.824;5.564;2022-10-17T14:17:55;20.67;;;18.40;;
57989;SDS011;58373;51.824;5.564;2022-10-17T14:20:23;21.02;;;19.08;;
57989;SDS011;58373;51.824;5.564;2022-10-17T14:22:49;20.58;;;18.67;;
57989;SDS011;58373;51.824;5.564;2022-10-17T14:25:28;20.42;;;18.33;;
57989;SDS011;58373;51.824;5.564;2022-10-17T14:27:59;19.92;;;18.13;;
57989;SDS011;58373;51.824;5.564;2022-10-17T14:30:34;19.20;;;17.38;;
57989;SDS011;58373;51.824;5.564;2022-10-17T14:33:04;20.73;;;18.83;;
57989;SDS011;58373;51.824;5.564;2022-10-17T14:35:33;21.52;;;19.30;;
57989;SDS011;58373;51.824;5.564;2022-10-17T14:38:00;21.10;;;19.10;;
57989;SDS011;58373;51.824;5.564;2022-10-17T14:40:28;21.13;;;19.25;;
57989;SDS011;58373;51.824;5.564;2022-10-17T14:42:56;20.83;;;19.02;;
57989;SDS011;58373;51.824;5.564;2022-10-17T14:45:30;21.77;;;19.67;;
57989;SDS011;58373;51.824;5.564;2022-10-17T14:48:16;21.77;;;19.70;;
57989;SDS011;58373;51.824;5.564;2022-10-17T14:54:33;23.20;;;21.25;;
57989;SDS011;58373;51.824;5.564;2022-10-17T14:56:48;21.63;;;19.63;;
57989;SDS011;58373;51.824;5.564;2022-10-17T14:59:15;22.13;;;20.02;;
57989;SDS011;58373;51.824;5.564;2022-10-17T15:01:46;22.35;;;20.25;;
57989;SDS011;58373;51.824;5.564;2022-10-17T15:04:12;22.10;;;19.85;;
57989;SDS011;58373;51.824;5.564;2022-10-17T15:06:37;22.38;;;20.20;;
57989;SDS011;58373;51.824;5.564;2022-10-17T15:09:04;22.27;;;20.27;;
57989;SDS011;58373;51.824;5.564;2022-10-17T15:11:29;21.75;;;19.88;;
57989;SDS011;58373;51.824;5.564;2022-10-17T15:13:55;22.15;;;20.10;;
57989;SDS011;58373;51.824;5.564;2022-10-17T15:16:21;22.13;;;20.13;;
57989;SDS011;58373;51.824;5.564;2022-10-17T15:18:51;22.02;;;20.08;;
57989;SDS011;58373;51.824;5.564;2022-10-17T15:21:19;21.98;;;20.05;;
57989;SDS011;58373;51.824;5.564;2022-10-17T15:23:46;21.75;;;19.95;;
57989;SDS011;58373;51.824;5.564;2022-10-17T15:26:19;21.10;;;19.30;;
57989;SDS011;58373;51.824;5.564;2022-10-17T15:28:46;21.77;;;19.98;;
57989;SDS011;58373;51.824;5.564;2022-10-17T15:31:14;21.20;;;19.38;;
57989;SDS011;58373;51.824;5.564;2022-10-17T15:33:41;22.08;;;20.02;;
57989;SDS011;58373;51.824;5.564;2022-10-17T15:36:24;21.17;;;19.25;;
57989;SDS011;58373;51.824;5.564;2022-10-17T15:38:51;22.00;;;19.92;;
57989;SDS011;58373;51.824;5.564;2022-10-17T15:41:22;21.77;;;19.77;;
57989;SDS011;58373;51.824;5.564;2022-10-17T15:43:49;22.48;;;20.38;;
57989;SDS011;58373;51.824;5.564;2022-10-17T15:46:20;21.63;;;19.63;;
57989;SDS011;58373;51.824;5.564;2022-10-17T15:48:51;21.02;;;18.88;;
57989;SDS011;58373;51.824;5.564;2022-10-17T15:51:18;20.35;;;18.63;;
57989;SDS011;58373;51.824;5.564;2022-10-17T15:53:43;20.30;;;18.48;;
57989;SDS011;58373;51.824;5.564;2022-10-17T15:56:20;21.25;;;19.10;;
57989;SDS011;58373;51.824;5.564;2022-10-17T15:58:47;21.73;;;19.50;;
57989;SDS011;58373;51.824;5.564;2022-10-17T16:01:21;20.63;;;18.73;;
57989;SDS011;58373;51.824;5.564;2022-10-17T16:03:49;20.67;;;18.88;;
57989;SDS011;58373;51.824;5.564;2022-10-17T16:06:15;21.50;;;19.33;;
57989;SDS011;58373;51.824;5.564;2022-10-17T16:08:42;20.40;;;18.60;;
57989;SDS011;58373;51.824;5.564;2022-10-17T16:11:10;21.85;;;19.80;;
57989;SDS011;58373;51.824;5.564;2022-10-17T16:13:52;20.92;;;18.85;;
57989;SDS011;58373;51.824;5.564;2022-10-17T16:16:20;19.88;;;18.17;;
57989;SDS011;58373;51.824;5.564;2022-10-17T16:18:46;21.98;;;19.85;;
57989;SDS011;58373;51.824;5.564;2022-10-17T16:21:13;21.42;;;19.42;;
57989;SDS011;58373;51.824;5.564;2022-10-17T16:23:40;20.67;;;18.77;;
57989;SDS011;58373;51.824;5.564;2022-10-17T16:26:06;20.35;;;18.38;;
57989;SDS011;58373;51.824;5.564;2022-10-17T16:28:32;19.92;;;18.13;;
57989;SDS011;58373;51.824;5.564;2022-10-17T16:30:58;19.25;;;17.60;;
57989;SDS011;58373;51.824;5.564;2022-10-17T16:33:23;19.63;;;17.92;;
57989;SDS011;58373;51.824;5.564;2022-10-17T16:35:49;20.25;;;18.40;;
57989;SDS011;58373;51.824;5.564;2022-10-17T16:38:14;19.92;;;18.02;;
57989;SDS011;58373;51.824;5.564;2022-10-17T16:40:39;20.25;;;18.35;;
57989;SDS011;58373;51.824;5.564;2022-10-17T16:43:05;19.67;;;17.88;;
57989;SDS011;58373;51.824;5.564;2022-10-17T16:45:31;19.85;;;18.05;;
57989;SDS011;58373;51.824;5.564;2022-10-17T16:47:56;20.00;;;18.10;;